sensor_id;sensor_type;location;lat;lon;timestamp;temperature;humidity
12634;DHT22;6382;48.614;8.880;2024-01-27T00:00:24;1.50;99.90
12634;DHT22;6382;48.614;8.880;2024-01-27T00:02:49;1.50;99.90
12634;DHT22;6382;48.614;8.880;2024-01-27T00:05:15;1.30;99.90
12634;DHT22;6382;48.614;8.880;2024-01-27T00:07:40;1.40;99.90
12634;DHT22;6382;48.614;8.880;2024-01-27T00:10:06;1.30;99.90
12634;DHT22;6382;48.614;8.880;2024-01-27T00:12:32;1.20;99.90
12634;DHT22;6382;48.614;8.880;2024-01-27T00:14:57;2.50;99.90
12634;DHT22;6382;48.614;8.880;2024-01-27T00:17:23;1.20;99.90
12634;DHT22;6382;48.614;8.880;2024-01-27T00:19:53;1.20;99.90
12634;DHT22;6382;48.614;8.880;2024-01-27T00:22:19;1.10;99.90
12634;DHT22;6382;48.614;8.880;2024-01-27T00:24:46;1.20;99.90
12634;DHT22;6382;48.614;8.880;2024-01-27T00:27:12;-0.20;99.90
12634;DHT22;6382;48.614;8.880;2024-01-27T00:29:37;1.00;99.90
12634;DHT22;6382;48.614;8.880;2024-01-27T00:32:03;1.00;99.90
12634;DHT22;6382;48.614;8.880;2024-01-27T00:34:28;0.90;99.90
12634;DHT22;6382;48.614;8.880;2024-01-27T00:36:54;1.00;99.90
12634;DHT22;6382;48.614;8.880;2024-01-27T00:39:19;0.90;99.90
12634;DHT22;6382;48.614;8.880;2024-01-27T00:41:45;0.90;99.90
12634;DHT22;6382;48.614;8.880;2024-01-27T00:44:10;1.10;99.90
12634;DHT22;6382;48.614;8.880;2024-01-27T00:46:36;2.70;99.90
12634;DHT22;6382;48.614;8.880;2024-01-27T00:49:02;0.60;99.90
12634;DHT22;6382;48.614;8.880;2024-01-27T00:51:28;0.50;99.90
12634;DHT22;6382;48.614;8.880;2024-01-27T00:53:53;0.50;99.90
12634;DHT22;6382;48.614;8.880;2024-01-27T00:56:19;0.40;99.90
12634;DHT22;6382;48.614;8.880;2024-01-27T00:58:44;0.40;99.90
12634;DHT22;6382;48.614;8.880;2024-01-27T01:01:10;0.30;99.90
12634;DHT22;6382;48.614;8.880;2024-01-27T01:03:35;0.30;99.90
12634;DHT22;6382;48.614;8.880;2024-01-27T01:06:01;0.40;99.90
12634;DHT22;6382;48.614;8.880;2024-01-27T01:08:26;0.40;99.90
12634;DHT22;6382;48.614;8.880;2024-01-27T01:10:52;0.50;99.90
12634;DHT22;6382;48.614;8.880;2024-01-27T01:13:17;0.50;99.90
12634;DHT22;6382;48.614;8.880;2024-01-27T01:15:43;0.50;99.90
12634;DHT22;6382;48.614;8.880;2024-01-27T01:18:08;0.40;99.90
12634;DHT22;6382;48.614;8.880;2024-01-27T01:20:34;0.30;99.90
12634;DHT22;6382;48.614;8.880;2024-01-27T01:22:59;0.20;99.90
12634;DHT22;6382;48.614;8.880;2024-01-27T01:25:24;0.30;99.90
12634;DHT22;6382;48.614;8.880;2024-01-27T01:27:50;0.30;99.90
12634;DHT22;6382;48.614;8.880;2024-01-27T01:30:17;0.40;99.90
12634;DHT22;6382;48.614;8.880;2024-01-27T01:32:43;0.50;99.90
12634;DHT22;6382;48.614;8.880;2024-01-27T01:35:09;0.70;99.90
12634;DHT22;6382;48.614;8.880;2024-01-27T01:37:35;0.70;99.90
12634;DHT22;6382;48.614;8.880;2024-01-27T01:40:01;0.80;99.90
12634;DHT22;6382;48.614;8.880;2024-01-27T01:42:27;0.70;99.90
12634;DHT22;6382;48.614;8.880;2024-01-27T01:44:54;0.70;99.90
12634;DHT22;6382;48.614;8.880;2024-01-27T01:47:20;0.60;99.90
12634;DHT22;6382;48.614;8.880;2024-01-27T01:49:45;0.50;99.90
12634;DHT22;6382;48.614;8.880;2024-01-27T01:52:11;0.40;99.90
12634;DHT22;6382;48.614;8.880;2024-01-27T01:54:37;0.30;99.90
12634;DHT22;6382;48.614;8.880;2024-01-27T01:57:03;0.20;99.90
12634;DHT22;6382;48.614;8.880;2024-01-27T01:59:28;0.10;99.90
12634;DHT22;6382;48.614;8.880;2024-01-27T02:01:54;0.10;99.90
12634;DHT22;6382;48.614;8.880;2024-01-27T02:04:19;0.10;99.90
12634;DHT22;6382;48.614;8.880;2024-01-27T02:06:45;0.10;99.90
12634;DHT22;6382;48.614;8.880;2024-01-27T02:09:10;0.10;99.90
12634;DHT22;6382;48.614;8.880;2024-01-27T02:11:36;0.10;99.90
12634;DHT22;6382;48.614;8.880;2024-01-27T02:14:01;0.10;99.90
12634;DHT22;6382;48.614;8.880;2024-01-27T02:16:27;0.10;99.90
12634;DHT22;6382;48.614;8.880;2024-01-27T02:18:52;0.10;99.90
12634;DHT22;6382;48.614;8.880;2024-01-27T02:21:18;0.20;99.90
12634;DHT22;6382;48.614;8.880;2024-01-27T02:23:44;0.20;99.90
12634;DHT22;6382;48.614;8.880;2024-01-27T02:26:09;0.20;99.90
12634;DHT22;6382;48.614;8.880;2024-01-27T02:28:34;0.20;99.90
12634;DHT22;6382;48.614;8.880;2024-01-27T02:31:00;0.10;99.90
12634;DHT22;6382;48.614;8.880;2024-01-27T02:33:26;0.40;99.90
12634;DHT22;6382;48.614;8.880;2024-01-27T02:35:51;0.20;99.90
12634;DHT22;6382;48.614;8.880;2024-01-27T02:38:17;0.10;99.90
12634;DHT22;6382;48.614;8.880;2024-01-27T02:40:42;0.10;99.90
12634;DHT22;6382;48.614;8.880;2024-01-27T02:43:08;0.10;99.90
12634;DHT22;6382;48.614;8.880;2024-01-27T02:45:33;0.10;99.90
12634;DHT22;6382;48.614;8.880;2024-01-27T02:47:59;0.00;99.90
12634;DHT22;6382;48.614;8.880;2024-01-27T02:50:24;0.10;99.90
12634;DHT22;6382;48.614;8.880;2024-01-27T02:52:50;0.10;99.90
12634;DHT22;6382;48.614;8.880;2024-01-27T02:55:15;0.00;99.90
12634;DHT22;6382;48.614;8.880;2024-01-27T02:57:41;0.00;99.90
12634;DHT22;6382;48.614;8.880;2024-01-27T03:00:06;0.00;99.90
12634;DHT22;6382;48.614;8.880;2024-01-27T03:02:32;0.00;99.90
12634;DHT22;6382;48.614;8.880;2024-01-27T03:04:57;0.00;99.90
12634;DHT22;6382;48.614;8.880;2024-01-27T03:07:23;0.00;99.90
12634;DHT22;6382;48.614;8.880;2024-01-27T03:09:48;-0.10;99.90
12634;DHT22;6382;48.614;8.880;2024-01-27T03:12:14;-0.10;99.90
12634;DHT22;6382;48.614;8.880;2024-01-27T03:14:41;-0.20;99.90
12634;DHT22;6382;48.614;8.880;2024-01-27T03:17:06;-0.20;99.90
12634;DHT22;6382;48.614;8.880;2024-01-27T03:19:32;-0.20;99.90
12634;DHT22;6382;48.614;8.880;2024-01-27T03:21:57;-0.20;99.90
12634;DHT22;6382;48.614;8.880;2024-01-27T03:24:23;-0.20;99.90
12634;DHT22;6382;48.614;8.880;2024-01-27T03:26:48;-0.20;99.90
12634;DHT22;6382;48.614;8.880;2024-01-27T03:29:14;-0.30;99.90
12634;DHT22;6382;48.614;8.880;2024-01-27T03:31:39;-0.10;99.90
12634;DHT22;6382;48.614;8.880;2024-01-27T03:34:05;-0.20;99.90
12634;DHT22;6382;48.614;8.880;2024-01-27T03:36:30;-0.30;99.90
12634;DHT22;6382;48.614;8.880;2024-01-27T03:38:56;-0.30;99.90
12634;DHT22;6382;48.614;8.880;2024-01-27T03:41:22;-0.30;99.90
12634;DHT22;6382;48.614;8.880;2024-01-27T03:43:47;-0.30;99.90
12634;DHT22;6382;48.614;8.880;2024-01-27T03:46:13;-0.40;99.90
12634;DHT22;6382;48.614;8.880;2024-01-27T03:48:38;-0.50;99.90
12634;DHT22;6382;48.614;8.880;2024-01-27T03:51:04;-0.60;99.90
12634;DHT22;6382;48.614;8.880;2024-01-27T03:53:29;-0.70;99.90
12634;DHT22;6382;48.614;8.880;2024-01-27T03:55:55;-0.70;99.90
12634;DHT22;6382;48.614;8.880;2024-01-27T03:58:23;-0.70;99.90
12634;DHT22;6382;48.614;8.880;2024-01-27T04:00:49;-0.80;99.90
12634;DHT22;6382;48.614;8.880;2024-01-27T04:03:14;-0.90;99.90
12634;DHT22;6382;48.614;8.880;2024-01-27T04:05:40;-0.90;99.90
12634;DHT22;6382;48.614;8.880;2024-01-27T04:08:05;-1.00;99.90
12634;DHT22;6382;48.614;8.880;2024-01-27T04:10:31;-1.10;99.90
12634;DHT22;6382;48.614;8.880;2024-01-27T04:12:57;-1.10;99.90
12634;DHT22;6382;48.614;8.880;2024-01-27T04:15:22;-1.10;99.90
12634;DHT22;6382;48.614;8.880;2024-01-27T04:17:48;-1.10;99.90
12634;DHT22;6382;48.614;8.880;2024-01-27T04:20:13;-1.00;99.90
12634;DHT22;6382;48.614;8.880;2024-01-27T04:22:39;-1.00;99.90
12634;DHT22;6382;48.614;8.880;2024-01-27T04:25:05;-1.00;99.90
12634;DHT22;6382;48.614;8.880;2024-01-27T04:27:32;-1.10;99.90
12634;DHT22;6382;48.614;8.880;2024-01-27T04:29:57;-1.00;99.90
12634;DHT22;6382;48.614;8.880;2024-01-27T04:32:23;-1.00;99.90
12634;DHT22;6382;48.614;8.880;2024-01-27T04:34:49;-0.90;99.90
12634;DHT22;6382;48.614;8.880;2024-01-27T04:37:14;-1.00;99.90
12634;DHT22;6382;48.614;8.880;2024-01-27T04:39:40;-1.00;99.90
12634;DHT22;6382;48.614;8.880;2024-01-27T04:42:05;-0.90;99.90
12634;DHT22;6382;48.614;8.880;2024-01-27T04:44:34;-0.90;99.90
12634;DHT22;6382;48.614;8.880;2024-01-27T04:47:00;-0.80;99.90
12634;DHT22;6382;48.614;8.880;2024-01-27T04:49:25;-0.80;99.90
12634;DHT22;6382;48.614;8.880;2024-01-27T04:51:51;-0.80;99.90
12634;DHT22;6382;48.614;8.880;2024-01-27T04:54:16;-0.70;99.90
12634;DHT22;6382;48.614;8.880;2024-01-27T04:56:42;-0.60;99.90
12634;DHT22;6382;48.614;8.880;2024-01-27T04:59:07;-0.70;99.90
12634;DHT22;6382;48.614;8.880;2024-01-27T05:01:33;-0.60;99.90
12634;DHT22;6382;48.614;8.880;2024-01-27T05:03:58;-0.70;99.90
12634;DHT22;6382;48.614;8.880;2024-01-27T05:06:24;-0.80;99.90
12634;DHT22;6382;48.614;8.880;2024-01-27T05:08:49;-0.80;99.90
12634;DHT22;6382;48.614;8.880;2024-01-27T05:11:15;-0.80;99.90
12634;DHT22;6382;48.614;8.880;2024-01-27T05:13:41;-0.80;99.90
12634;DHT22;6382;48.614;8.880;2024-01-27T05:16:06;-0.80;99.90
12634;DHT22;6382;48.614;8.880;2024-01-27T05:18:32;-0.70;99.90
12634;DHT22;6382;48.614;8.880;2024-01-27T05:20:57;-0.70;99.90
12634;DHT22;6382;48.614;8.880;2024-01-27T05:23:23;-0.80;99.90
12634;DHT22;6382;48.614;8.880;2024-01-27T05:25:48;-0.80;99.90
12634;DHT22;6382;48.614;8.880;2024-01-27T05:28:14;-0.80;99.90
12634;DHT22;6382;48.614;8.880;2024-01-27T05:30:39;-0.80;99.90
12634;DHT22;6382;48.614;8.880;2024-01-27T05:33:05;-0.80;99.90
12634;DHT22;6382;48.614;8.880;2024-01-27T05:35:30;-0.90;99.90
12634;DHT22;6382;48.614;8.880;2024-01-27T05:37:56;-0.90;99.90
12634;DHT22;6382;48.614;8.880;2024-01-27T05:40:22;-1.00;99.90
12634;DHT22;6382;48.614;8.880;2024-01-27T05:42:47;-1.00;99.90
12634;DHT22;6382;48.614;8.880;2024-01-27T05:45:14;-1.10;99.90
12634;DHT22;6382;48.614;8.880;2024-01-27T05:47:40;-1.20;99.90
12634;DHT22;6382;48.614;8.880;2024-01-27T05:50:06;-1.10;99.90
12634;DHT22;6382;48.614;8.880;2024-01-27T05:52:33;-1.10;99.90
12634;DHT22;6382;48.614;8.880;2024-01-27T05:54:59;-1.20;99.90
12634;DHT22;6382;48.614;8.880;2024-01-27T05:57:24;-1.30;99.90
12634;DHT22;6382;48.614;8.880;2024-01-27T05:59:50;-1.30;99.90
12634;DHT22;6382;48.614;8.880;2024-01-27T06:02:15;-1.30;99.90
12634;DHT22;6382;48.614;8.880;2024-01-27T06:04:43;-1.30;99.90
12634;DHT22;6382;48.614;8.880;2024-01-27T06:07:08;-1.30;99.90
12634;DHT22;6382;48.614;8.880;2024-01-27T06:09:34;-1.30;99.90
12634;DHT22;6382;48.614;8.880;2024-01-27T06:11:59;-1.20;99.90
12634;DHT22;6382;48.614;8.880;2024-01-27T06:14:25;-1.20;99.90
12634;DHT22;6382;48.614;8.880;2024-01-27T06:16:51;-1.30;99.90
12634;DHT22;6382;48.614;8.880;2024-01-27T06:19:17;-1.30;99.90
12634;DHT22;6382;48.614;8.880;2024-01-27T06:21:42;-1.10;99.90
12634;DHT22;6382;48.614;8.880;2024-01-27T06:24:07;-1.40;99.90
12634;DHT22;6382;48.614;8.880;2024-01-27T06:26:33;-1.40;99.90
12634;DHT22;6382;48.614;8.880;2024-01-27T06:28:58;-1.30;99.90
12634;DHT22;6382;48.614;8.880;2024-01-27T06:31:25;-1.40;99.90
12634;DHT22;6382;48.614;8.880;2024-01-27T06:33:51;-1.30;99.90
12634;DHT22;6382;48.614;8.880;2024-01-27T06:36:16;-1.20;99.90
12634;DHT22;6382;48.614;8.880;2024-01-27T06:38:41;-1.20;99.90
12634;DHT22;6382;48.614;8.880;2024-01-27T06:41:07;-1.10;99.90
12634;DHT22;6382;48.614;8.880;2024-01-27T06:43:32;-1.10;99.90
12634;DHT22;6382;48.614;8.880;2024-01-27T06:45:58;-1.10;99.90
12634;DHT22;6382;48.614;8.880;2024-01-27T06:48:23;-1.00;99.90
12634;DHT22;6382;48.614;8.880;2024-01-27T06:50:52;-1.10;99.90
12634;DHT22;6382;48.614;8.880;2024-01-27T06:53:18;-1.10;99.90
12634;DHT22;6382;48.614;8.880;2024-01-27T06:55:43;-0.80;99.90
12634;DHT22;6382;48.614;8.880;2024-01-27T06:58:09;-1.00;99.90
12634;DHT22;6382;48.614;8.880;2024-01-27T07:00:34;-1.20;99.90
12634;DHT22;6382;48.614;8.880;2024-01-27T07:03:00;-1.10;99.90
12634;DHT22;6382;48.614;8.880;2024-01-27T07:05:25;-1.30;99.90
12634;DHT22;6382;48.614;8.880;2024-01-27T07:07:51;0.80;99.90
12634;DHT22;6382;48.614;8.880;2024-01-27T07:10:16;-1.50;99.90
12634;DHT22;6382;48.614;8.880;2024-01-27T07:12:42;-1.60;99.90
12634;DHT22;6382;48.614;8.880;2024-01-27T07:15:07;0.30;99.90
12634;DHT22;6382;48.614;8.880;2024-01-27T07:17:33;-1.80;99.90
12634;DHT22;6382;48.614;8.880;2024-01-27T07:19:58;-1.80;99.90
12634;DHT22;6382;48.614;8.880;2024-01-27T07:22:24;-1.90;99.90
12634;DHT22;6382;48.614;8.880;2024-01-27T07:24:50;-1.80;99.90
12634;DHT22;6382;48.614;8.880;2024-01-27T07:27:16;-1.90;99.90
12634;DHT22;6382;48.614;8.880;2024-01-27T07:29:42;-1.90;99.90
12634;DHT22;6382;48.614;8.880;2024-01-27T07:32:07;-2.00;99.90
12634;DHT22;6382;48.614;8.880;2024-01-27T07:34:42;-1.90;99.90
12634;DHT22;6382;48.614;8.880;2024-01-27T07:37:08;-2.00;99.90
12634;DHT22;6382;48.614;8.880;2024-01-27T07:39:33;-0.50;99.90
12634;DHT22;6382;48.614;8.880;2024-01-27T07:41:59;-2.10;99.90
12634;DHT22;6382;48.614;8.880;2024-01-27T07:44:24;-2.00;99.90
12634;DHT22;6382;48.614;8.880;2024-01-27T07:46:50;-1.90;99.90
12634;DHT22;6382;48.614;8.880;2024-01-27T07:49:15;-1.80;99.90
12634;DHT22;6382;48.614;8.880;2024-01-27T07:51:41;-1.80;99.90
12634;DHT22;6382;48.614;8.880;2024-01-27T07:54:06;-1.60;99.90
12634;DHT22;6382;48.614;8.880;2024-01-27T07:56:33;-1.50;99.90
12634;DHT22;6382;48.614;8.880;2024-01-27T07:58:58;-1.20;99.90
12634;DHT22;6382;48.614;8.880;2024-01-27T08:01:24;-1.20;99.90
12634;DHT22;6382;48.614;8.880;2024-01-27T08:03:49;-1.10;99.90
12634;DHT22;6382;48.614;8.880;2024-01-27T08:06:18;-1.20;99.90
12634;DHT22;6382;48.614;8.880;2024-01-27T08:08:47;-1.20;99.90
12634;DHT22;6382;48.614;8.880;2024-01-27T08:11:17;-1.00;99.90
12634;DHT22;6382;48.614;8.880;2024-01-27T08:13:42;-0.90;99.90
12634;DHT22;6382;48.614;8.880;2024-01-27T08:16:08;1.10;99.90
12634;DHT22;6382;48.614;8.880;2024-01-27T08:18:41;-0.70;99.90
12634;DHT22;6382;48.614;8.880;2024-01-27T08:21:09;-0.50;99.90
12634;DHT22;6382;48.614;8.880;2024-01-27T08:23:34;-0.30;99.90
12634;DHT22;6382;48.614;8.880;2024-01-27T08:26:00;1.20;99.90
12634;DHT22;6382;48.614;8.880;2024-01-27T08:28:27;-0.10;99.90
12634;DHT22;6382;48.614;8.880;2024-01-27T08:30:52;-0.10;99.90
12634;DHT22;6382;48.614;8.880;2024-01-27T08:33:18;0.00;99.90
12634;DHT22;6382;48.614;8.880;2024-01-27T08:35:43;0.20;99.90
12634;DHT22;6382;48.614;8.880;2024-01-27T08:38:09;0.10;99.90
12634;DHT22;6382;48.614;8.880;2024-01-27T08:40:35;0.20;99.90
12634;DHT22;6382;48.614;8.880;2024-01-27T08:43:01;1.50;99.90
12634;DHT22;6382;48.614;8.880;2024-01-27T08:45:26;0.20;99.90
12634;DHT22;6382;48.614;8.880;2024-01-27T08:47:52;0.30;99.90
12634;DHT22;6382;48.614;8.880;2024-01-27T08:50:18;0.30;99.90
12634;DHT22;6382;48.614;8.880;2024-01-27T08:52:43;0.20;99.90
12634;DHT22;6382;48.614;8.880;2024-01-27T08:55:09;0.30;99.90
12634;DHT22;6382;48.614;8.880;2024-01-27T08:57:34;0.40;99.90
12634;DHT22;6382;48.614;8.880;2024-01-27T09:00:00;0.50;99.90
12634;DHT22;6382;48.614;8.880;2024-01-27T09:02:25;0.60;99.90
12634;DHT22;6382;48.614;8.880;2024-01-27T09:04:51;0.70;99.90
12634;DHT22;6382;48.614;8.880;2024-01-27T09:07:16;0.70;99.90
12634;DHT22;6382;48.614;8.880;2024-01-27T09:09:42;0.80;99.90
12634;DHT22;6382;48.614;8.880;2024-01-27T09:12:08;0.80;99.90
12634;DHT22;6382;48.614;8.880;2024-01-27T09:14:33;0.70;99.90
12634;DHT22;6382;48.614;8.880;2024-01-27T09:16:59;0.70;99.90
12634;DHT22;6382;48.614;8.880;2024-01-27T09:19:25;0.70;99.90
12634;DHT22;6382;48.614;8.880;2024-01-27T09:21:50;0.80;99.90
12634;DHT22;6382;48.614;8.880;2024-01-27T09:24:16;0.90;99.90
12634;DHT22;6382;48.614;8.880;2024-01-27T09:26:41;0.90;99.90
12634;DHT22;6382;48.614;8.880;2024-01-27T09:29:07;1.10;99.90
12634;DHT22;6382;48.614;8.880;2024-01-27T09:31:33;1.10;99.90
12634;DHT22;6382;48.614;8.880;2024-01-27T09:33:58;1.10;99.90
12634;DHT22;6382;48.614;8.880;2024-01-27T09:36:24;1.20;99.90
12634;DHT22;6382;48.614;8.880;2024-01-27T09:38:49;1.10;99.90
12634;DHT22;6382;48.614;8.880;2024-01-27T09:41:15;1.20;99.90
12634;DHT22;6382;48.614;8.880;2024-01-27T09:43:44;1.10;99.90
12634;DHT22;6382;48.614;8.880;2024-01-27T09:46:14;1.20;99.90
12634;DHT22;6382;48.614;8.880;2024-01-27T09:48:39;1.10;99.90
12634;DHT22;6382;48.614;8.880;2024-01-27T09:51:06;1.20;99.90
12634;DHT22;6382;48.614;8.880;2024-01-27T09:53:32;1.20;99.90
12634;DHT22;6382;48.614;8.880;2024-01-27T09:55:58;1.30;99.90
12634;DHT22;6382;48.614;8.880;2024-01-27T09:58:28;1.20;99.90
12634;DHT22;6382;48.614;8.880;2024-01-27T10:00:58;1.30;99.90
12634;DHT22;6382;48.614;8.880;2024-01-27T10:03:24;1.40;99.90
12634;DHT22;6382;48.614;8.880;2024-01-27T10:05:51;1.40;99.90
12634;DHT22;6382;48.614;8.880;2024-01-27T10:08:17;1.40;99.90
12634;DHT22;6382;48.614;8.880;2024-01-27T10:10:43;-0.80;99.90
12634;DHT22;6382;48.614;8.880;2024-01-27T10:13:08;1.40;99.90
12634;DHT22;6382;48.614;8.880;2024-01-27T10:15:35;1.40;99.90
12634;DHT22;6382;48.614;8.880;2024-01-27T10:18:04;1.40;99.90
12634;DHT22;6382;48.614;8.880;2024-01-27T10:20:30;1.40;99.90
12634;DHT22;6382;48.614;8.880;2024-01-27T10:22:56;1.50;99.90
12634;DHT22;6382;48.614;8.880;2024-01-27T10:25:21;1.40;99.90
12634;DHT22;6382;48.614;8.880;2024-01-27T10:27:47;1.40;99.90
12634;DHT22;6382;48.614;8.880;2024-01-27T10:30:16;1.40;99.90
12634;DHT22;6382;48.614;8.880;2024-01-27T10:32:42;1.40;99.90
12634;DHT22;6382;48.614;8.880;2024-01-27T10:35:08;1.50;99.90
12634;DHT22;6382;48.614;8.880;2024-01-27T10:37:34;1.40;99.90
12634;DHT22;6382;48.614;8.880;2024-01-27T10:40:03;1.50;99.90
12634;DHT22;6382;48.614;8.880;2024-01-27T10:42:30;1.50;99.90
12634;DHT22;6382;48.614;8.880;2024-01-27T10:44:59;1.50;99.90
12634;DHT22;6382;48.614;8.880;2024-01-27T10:47:29;1.60;99.90
12634;DHT22;6382;48.614;8.880;2024-01-27T10:49:56;1.60;99.90
12634;DHT22;6382;48.614;8.880;2024-01-27T10:52:34;1.70;99.90
12634;DHT22;6382;48.614;8.880;2024-01-27T10:55:03;1.80;99.90
12634;DHT22;6382;48.614;8.880;2024-01-27T10:57:29;1.90;99.90
12634;DHT22;6382;48.614;8.880;2024-01-27T10:59:55;2.00;99.90
12634;DHT22;6382;48.614;8.880;2024-01-27T11:02:21;2.20;99.90
12634;DHT22;6382;48.614;8.880;2024-01-27T11:04:51;2.40;99.90
12634;DHT22;6382;48.614;8.880;2024-01-27T11:07:19;2.30;99.90
12634;DHT22;6382;48.614;8.880;2024-01-27T11:09:46;2.40;99.90
12634;DHT22;6382;48.614;8.880;2024-01-27T11:12:13;2.50;99.90
12634;DHT22;6382;48.614;8.880;2024-01-27T11:14:38;2.60;99.90
12634;DHT22;6382;48.614;8.880;2024-01-27T11:17:04;2.50;99.90
12634;DHT22;6382;48.614;8.880;2024-01-27T11:19:29;2.60;99.90
12634;DHT22;6382;48.614;8.880;2024-01-27T11:22:04;3.80;99.90
12634;DHT22;6382;48.614;8.880;2024-01-27T11:24:29;2.60;99.90
12634;DHT22;6382;48.614;8.880;2024-01-27T11:27:02;2.60;99.90
12634;DHT22;6382;48.614;8.880;2024-01-27T11:29:27;2.70;99.90
12634;DHT22;6382;48.614;8.880;2024-01-27T11:31:55;3.50;99.90
12634;DHT22;6382;48.614;8.880;2024-01-27T11:34:21;2.70;99.90
12634;DHT22;6382;48.614;8.880;2024-01-27T11:36:48;2.70;99.90
12634;DHT22;6382;48.614;8.880;2024-01-27T11:39:29;2.60;99.90
12634;DHT22;6382;48.614;8.880;2024-01-27T11:42:05;2.60;99.90
12634;DHT22;6382;48.614;8.880;2024-01-27T11:44:33;2.70;99.90
12634;DHT22;6382;48.614;8.880;2024-01-27T11:46:58;2.60;99.90
12634;DHT22;6382;48.614;8.880;2024-01-27T11:49:24;0.60;99.90
12634;DHT22;6382;48.614;8.880;2024-01-27T11:51:50;2.70;99.90
12634;DHT22;6382;48.614;8.880;2024-01-27T11:54:15;2.50;99.90
12634;DHT22;6382;48.614;8.880;2024-01-27T11:56:41;2.50;99.90
12634;DHT22;6382;48.614;8.880;2024-01-27T11:59:06;2.60;99.90
12634;DHT22;6382;48.614;8.880;2024-01-27T12:01:32;2.60;99.90
12634;DHT22;6382;48.614;8.880;2024-01-27T12:03:57;2.70;99.90
12634;DHT22;6382;48.614;8.880;2024-01-27T12:06:23;2.70;99.90
12634;DHT22;6382;48.614;8.880;2024-01-27T12:08:48;2.80;99.90
12634;DHT22;6382;48.614;8.880;2024-01-27T12:11:16;2.90;99.90
12634;DHT22;6382;48.614;8.880;2024-01-27T12:13:49;2.90;99.90
12634;DHT22;6382;48.614;8.880;2024-01-27T12:16:14;2.90;99.90
12634;DHT22;6382;48.614;8.880;2024-01-27T12:18:41;3.20;99.90
12634;DHT22;6382;48.614;8.880;2024-01-27T12:21:08;3.30;99.90
12634;DHT22;6382;48.614;8.880;2024-01-27T12:23:34;3.30;99.90
12634;DHT22;6382;48.614;8.880;2024-01-27T12:26:00;3.30;99.90
12634;DHT22;6382;48.614;8.880;2024-01-27T12:28:26;3.40;99.90
12634;DHT22;6382;48.614;8.880;2024-01-27T12:30:52;3.50;99.90
12634;DHT22;6382;48.614;8.880;2024-01-27T12:33:18;3.70;99.90
12634;DHT22;6382;48.614;8.880;2024-01-27T12:35:48;3.70;99.90
12634;DHT22;6382;48.614;8.880;2024-01-27T12:38:14;3.80;99.90
12634;DHT22;6382;48.614;8.880;2024-01-27T12:40:39;3.80;99.90
12634;DHT22;6382;48.614;8.880;2024-01-27T12:43:05;3.80;99.90
12634;DHT22;6382;48.614;8.880;2024-01-27T12:45:31;3.80;99.90
12634;DHT22;6382;48.614;8.880;2024-01-27T12:47:58;3.80;99.90
12634;DHT22;6382;48.614;8.880;2024-01-27T12:50:24;3.90;99.90
12634;DHT22;6382;48.614;8.880;2024-01-27T12:52:50;3.80;99.90
12634;DHT22;6382;48.614;8.880;2024-01-27T12:55:15;3.90;99.90
12634;DHT22;6382;48.614;8.880;2024-01-27T12:57:41;3.90;99.90
12634;DHT22;6382;48.614;8.880;2024-01-27T13:00:07;3.90;99.90
12634;DHT22;6382;48.614;8.880;2024-01-27T13:02:39;3.80;99.90
12634;DHT22;6382;48.614;8.880;2024-01-27T13:05:04;3.80;99.90
12634;DHT22;6382;48.614;8.880;2024-01-27T13:07:30;3.90;99.90
12634;DHT22;6382;48.614;8.880;2024-01-27T13:09:56;4.00;99.90
12634;DHT22;6382;48.614;8.880;2024-01-27T13:12:21;4.00;99.90
12634;DHT22;6382;48.614;8.880;2024-01-27T13:14:47;3.20;99.90
12634;DHT22;6382;48.614;8.880;2024-01-27T13:17:14;4.10;99.90
12634;DHT22;6382;48.614;8.880;2024-01-27T13:19:40;4.20;99.90
12634;DHT22;6382;48.614;8.880;2024-01-27T13:22:05;4.30;99.90
12634;DHT22;6382;48.614;8.880;2024-01-27T13:24:32;4.40;99.90
12634;DHT22;6382;48.614;8.880;2024-01-27T13:26:57;4.40;99.90
12634;DHT22;6382;48.614;8.880;2024-01-27T13:29:23;4.50;99.90
12634;DHT22;6382;48.614;8.880;2024-01-27T13:31:49;4.50;99.90
12634;DHT22;6382;48.614;8.880;2024-01-27T13:34:14;4.40;99.90
12634;DHT22;6382;48.614;8.880;2024-01-27T13:36:41;4.50;99.90
12634;DHT22;6382;48.614;8.880;2024-01-27T13:39:06;4.60;99.90
12634;DHT22;6382;48.614;8.880;2024-01-27T13:41:32;4.70;99.90
12634;DHT22;6382;48.614;8.880;2024-01-27T13:43:57;4.80;99.90
12634;DHT22;6382;48.614;8.880;2024-01-27T13:46:23;4.80;99.90
12634;DHT22;6382;48.614;8.880;2024-01-27T13:48:49;4.90;99.90
12634;DHT22;6382;48.614;8.880;2024-01-27T13:51:14;5.00;99.90
12634;DHT22;6382;48.614;8.880;2024-01-27T13:53:40;5.00;99.90
12634;DHT22;6382;48.614;8.880;2024-01-27T13:56:05;5.10;99.90
12634;DHT22;6382;48.614;8.880;2024-01-27T13:58:31;5.10;99.90
12634;DHT22;6382;48.614;8.880;2024-01-27T14:00:57;5.20;99.90
12634;DHT22;6382;48.614;8.880;2024-01-27T14:03:23;5.20;99.90
12634;DHT22;6382;48.614;8.880;2024-01-27T14:05:49;5.30;99.90
12634;DHT22;6382;48.614;8.880;2024-01-27T14:08:14;5.40;99.90
12634;DHT22;6382;48.614;8.880;2024-01-27T14:10:40;5.40;99.90
12634;DHT22;6382;48.614;8.880;2024-01-27T14:13:05;5.50;99.90
12634;DHT22;6382;48.614;8.880;2024-01-27T14:15:37;5.50;99.90
12634;DHT22;6382;48.614;8.880;2024-01-27T14:18:03;5.60;99.90
12634;DHT22;6382;48.614;8.880;2024-01-27T14:20:31;5.70;99.90
12634;DHT22;6382;48.614;8.880;2024-01-27T14:22:59;5.70;99.90
12634;DHT22;6382;48.614;8.880;2024-01-27T14:25:24;5.70;99.90
12634;DHT22;6382;48.614;8.880;2024-01-27T14:27:49;5.80;99.90
12634;DHT22;6382;48.614;8.880;2024-01-27T14:30:15;5.80;99.90
12634;DHT22;6382;48.614;8.880;2024-01-27T14:32:41;5.80;99.90
12634;DHT22;6382;48.614;8.880;2024-01-27T14:35:06;7.70;99.90
12634;DHT22;6382;48.614;8.880;2024-01-27T14:37:32;5.80;99.90
12634;DHT22;6382;48.614;8.880;2024-01-27T14:39:58;5.80;99.90
12634;DHT22;6382;48.614;8.880;2024-01-27T14:42:23;5.80;99.90
12634;DHT22;6382;48.614;8.880;2024-01-27T14:44:49;5.90;99.90
12634;DHT22;6382;48.614;8.880;2024-01-27T14:47:16;5.80;99.90
12634;DHT22;6382;48.614;8.880;2024-01-27T14:49:41;5.80;99.90
12634;DHT22;6382;48.614;8.880;2024-01-27T14:52:09;5.80;99.90
12634;DHT22;6382;48.614;8.880;2024-01-27T14:54:34;5.80;99.90
12634;DHT22;6382;48.614;8.880;2024-01-27T14:57:03;7.20;99.90
12634;DHT22;6382;48.614;8.880;2024-01-27T14:59:28;5.80;99.90
12634;DHT22;6382;48.614;8.880;2024-01-27T15:01:54;5.80;99.90
12634;DHT22;6382;48.614;8.880;2024-01-27T15:04:22;5.80;99.90
12634;DHT22;6382;48.614;8.880;2024-01-27T15:06:51;5.80;99.90
12634;DHT22;6382;48.614;8.880;2024-01-27T15:09:17;5.90;99.90
12634;DHT22;6382;48.614;8.880;2024-01-27T15:11:42;5.80;99.90
12634;DHT22;6382;48.614;8.880;2024-01-27T15:14:08;5.80;99.90
12634;DHT22;6382;48.614;8.880;2024-01-27T15:16:33;5.70;99.90
12634;DHT22;6382;48.614;8.880;2024-01-27T15:19:00;5.80;99.90
12634;DHT22;6382;48.614;8.880;2024-01-27T15:21:25;5.70;99.90
12634;DHT22;6382;48.614;8.880;2024-01-27T15:23:55;5.70;99.90
12634;DHT22;6382;48.614;8.880;2024-01-27T15:26:20;5.60;99.90
12634;DHT22;6382;48.614;8.880;2024-01-27T15:28:46;5.60;99.90
12634;DHT22;6382;48.614;8.880;2024-01-27T15:31:12;5.50;99.90
12634;DHT22;6382;48.614;8.880;2024-01-27T15:33:38;5.40;99.90
12634;DHT22;6382;48.614;8.880;2024-01-27T15:36:04;5.40;99.90
12634;DHT22;6382;48.614;8.880;2024-01-27T15:38:29;5.20;99.90
12634;DHT22;6382;48.614;8.880;2024-01-27T15:40:55;5.10;99.90
12634;DHT22;6382;48.614;8.880;2024-01-27T15:43:21;5.00;99.90
12634;DHT22;6382;48.614;8.880;2024-01-27T15:45:46;5.00;99.90
12634;DHT22;6382;48.614;8.880;2024-01-27T15:48:12;4.80;99.90